Red Springs, North Carolina
Current Conditions -  °F | °C
As of 3:52 PM on Monday 24 Nov 2014 (Local Time) from KMEB Reporting Station
Overcast Overcast  
Wind Chill: 21°   Ceiling: 8500
Heat Index: 21°   Visibility: 10mi
Dew Point: 17°   Wind: 10mph
Humidity: 76%   Direction: 200°SSW
Pressure: 29.8"   Gusts: NA
Location:  34.82°N, 79.18°W
Report Text: KMEB 242052Z AUTO 20009KT 10SM OVC085 21/17 A2980 RMK AO2 SLP091 60000 T02110167 58003
Loading
Personal Weather Stations






























Interactive Weather Map New forecast layout! Learn more

10-Day Weather Forecast

Advertisements
Track Severe Weather on mobile